Аэропорт
Петропавловск (UHPP)

 UHPP / PKC
ЗЦ Хабаровск
Петропавловск-Камчатский (UHPP)
Петропавловск-Камчатский (UHPP)
 53.16790, 158.45399  / 131 ft

 UHPP 251100Z 18003MPS 9999 -SHRA SCT015 OVC027CB 09/09 Q1014 R16R/290250 NOSIG RMK QFE757/1010
 TAF UHPP 250742Z 2509/2615 13003G08MPS 5000 -SHRA BKN010 OVC020CB TEMPO 2509/2512 09005G14MPS 1000 BR BKN004 OVC012CB TEMPO 2512/2521 VRB01MPS 0700 DZ FG VV002 TEMPO 2521/2615 1000 DZ BR VV003
UHPP_AIP_0217
показать схемы
Название сценария Тип сценария Flight Simulator 9 Flight Simulator X Prepar3D v2 Prepar3D v3 Prepar3D v4 xPlane
uhpp-scenery-fs9-0806 бесплатный


2019 © VATRUS division (Privacy Policy)